Osceola, Iowa
Current Conditions -  °F | °C
As of 10:55 PM on Thursday 30 Oct 2014 (Local Time) from KI75 Reporting Station
Overcast Overcast  
Wind Chill: 51°   Ceiling: 5000
Heat Index: 51°   Visibility: 10mi
Dew Point: 40°   Wind: 18mph
Humidity: 66%   Direction: 340°NNW
Pressure: 30.2"   Gusts: 24mph
Location:  41.03°N, 93.77°W
Report Text: KI75 310355Z AUTO 34016G21KT 10SM SCT031 OVC050 10/04 A3020 RMK AO2 T01040042
Loading
Personal Weather Stations






























Interactive Weather Map
Tropical Storm Tracking
New forecast layout! Learn more

10-Day Weather Forecast

Advertisements
Track Severe Weather on mobile